createdAt,value
2023-01-23T00:01:23.573Z,6.31
2023-01-23T00:03:50.359Z,6.32
2023-01-23T00:06:18.169Z,6.34
2023-01-23T00:08:46.513Z,6.34
2023-01-23T00:11:20.086Z,6.34
2023-01-23T00:13:46.806Z,6.37
2023-01-23T00:16:18.074Z,6.39
2023-01-23T00:18:45.207Z,6.42
2023-01-23T00:21:15.762Z,6.44
2023-01-23T00:23:44.843Z,6.45
2023-01-23T00:26:16.768Z,6.45
2023-01-23T00:28:45.331Z,6.45
2023-01-23T00:31:25.352Z,6.44
2023-01-23T00:34:00.606Z,6.47
2023-01-23T00:36:36.341Z,6.51
2023-01-23T00:39:06.729Z,6.52
2023-01-23T00:41:33.475Z,6.53
2023-01-23T00:44:00.112Z,6.48
2023-01-23T00:46:26.971Z,6.44
2023-01-23T00:48:53.662Z,6.43
2023-01-23T00:51:20.458Z,6.46
2023-01-23T00:53:47.157Z,6.50
2023-01-23T00:56:13.810Z,6.51
2023-01-23T00:58:43.505Z,6.54
2023-01-23T01:01:10.911Z,6.57
2023-01-23T01:03:39.018Z,6.62
2023-01-23T01:06:08.700Z,6.67
2023-01-23T01:08:35.648Z,6.71
2023-01-23T01:11:02.667Z,6.72
2023-01-23T01:13:30.960Z,6.74
2023-01-23T01:15:57.672Z,6.78
2023-01-23T01:18:24.509Z,6.77
2023-01-23T01:20:51.385Z,6.73
2023-01-23T01:23:19.206Z,6.71
2023-01-23T01:25:46.643Z,6.70
2023-01-23T01:28:14.028Z,6.71
2023-01-23T01:30:42.073Z,6.71
2023-01-23T01:33:08.869Z,6.74
2023-01-23T01:35:35.430Z,6.73
2023-01-23T01:38:02.304Z,6.74
2023-01-23T01:40:32.693Z,6.78
2023-01-23T01:43:02.636Z,6.77
2023-01-23T01:46:14.972Z,6.74
2023-01-23T01:49:18.737Z,6.71
2023-01-23T01:51:59.706Z,6.70
2023-01-23T01:54:39.220Z,6.70
2023-01-23T01:57:27.240Z,6.70
2023-01-23T02:00:11.691Z,6.74
2023-01-23T02:02:47.514Z,6.76
2023-01-23T02:05:28.208Z,6.76
2023-01-23T02:08:19.459Z,6.77
2023-01-23T02:10:47.274Z,6.78
2023-01-23T02:13:36.097Z,6.78
2023-01-23T02:16:12.358Z,6.80
2023-01-23T02:18:44.704Z,6.82
2023-01-23T02:21:13.909Z,6.82
2023-01-23T02:24:03.080Z,6.84
2023-01-23T02:26:36.777Z,6.85
2023-01-23T02:29:05.308Z,6.84
2023-01-23T02:31:35.469Z,6.85
2023-01-23T02:34:02.329Z,6.84
2023-01-23T02:36:30.643Z,6.84
2023-01-23T02:39:19.769Z,6.83
2023-01-23T02:41:51.674Z,6.83
2023-01-23T02:44:25.261Z,6.82
2023-01-23T02:46:54.684Z,6.83
2023-01-23T02:49:22.344Z,6.84
2023-01-23T02:51:51.280Z,6.85
2023-01-23T02:54:18.805Z,6.84
2023-01-23T02:56:45.891Z,6.84
2023-01-23T02:59:31.399Z,6.83
2023-01-23T03:01:58.847Z,6.82
2023-01-23T03:04:25.856Z,6.83
2023-01-23T03:06:52.967Z,6.81
2023-01-23T03:09:19.799Z,6.81
2023-01-23T03:11:47.397Z,6.80
2023-01-23T03:14:17.823Z,6.83
2023-01-23T03:21:12.692Z,6.82
2023-01-23T03:23:41.915Z,6.80
2023-01-23T03:26:08.530Z,6.76
2023-01-23T03:28:54.238Z,6.73
2023-01-23T03:31:20.976Z,6.71
2023-01-23T03:33:48.841Z,6.66
2023-01-23T03:36:15.581Z,6.62
2023-01-23T03:39:04.995Z,6.58
2023-01-23T03:41:32.534Z,6.58
2023-01-23T03:44:02.433Z,6.55
2023-01-23T03:46:29.351Z,6.52
2023-01-23T03:48:56.169Z,6.53
2023-01-23T03:51:22.891Z,6.53
2023-01-23T03:53:50.423Z,6.52
2023-01-23T03:56:17.099Z,6.51
2023-01-23T03:58:43.802Z,6.51
2023-01-23T04:01:13.318Z,6.52
2023-01-23T04:03:41.239Z,6.53
2023-01-23T04:06:07.993Z,6.55
2023-01-23T04:08:34.544Z,6.67
2023-01-23T04:11:09.893Z,6.82
2023-01-23T04:13:37.439Z,6.91
2023-01-23T04:16:05.534Z,6.96
2023-01-23T04:18:33.198Z,7.00
2023-01-23T04:21:00.654Z,7.04
2023-01-23T04:23:27.371Z,7.09
2023-01-23T04:25:54.199Z,7.13
2023-01-23T04:28:21.261Z,7.18
2023-01-23T04:30:50.597Z,7.20
2023-01-23T04:33:28.834Z,7.25
2023-01-23T04:35:56.896Z,7.27
2023-01-23T04:38:26.932Z,7.30
2023-01-23T04:40:53.655Z,7.32
2023-01-23T04:43:20.706Z,7.37
2023-01-23T04:45:51.676Z,7.43
2023-01-23T04:48:46.809Z,7.45
2023-01-23T04:51:14.922Z,7.42
2023-01-23T04:53:42.491Z,7.37
2023-01-23T04:56:09.075Z,7.34
2023-01-23T04:58:36.151Z,7.31
2023-01-23T05:01:06.087Z,7.29
2023-01-23T05:03:35.167Z,7.27
2023-01-23T05:06:01.945Z,7.27
2023-01-23T05:08:28.628Z,7.29
2023-01-23T05:11:06.901Z,7.28
2023-01-23T05:13:33.784Z,7.32
2023-01-23T05:16:01.302Z,7.37
2023-01-23T05:18:29.861Z,7.42
2023-01-23T05:20:57.185Z,7.47
2023-01-23T05:23:24.027Z,7.51
2023-01-23T05:25:51.170Z,7.54
2023-01-23T05:28:17.770Z,7.57
2023-01-23T05:30:48.084Z,7.60
2023-01-23T05:33:23.180Z,7.61
2023-01-23T05:35:50.234Z,7.62
2023-01-23T05:38:16.903Z,7.63
2023-01-23T05:40:43.813Z,7.62
2023-01-23T05:43:15.234Z,7.62
2023-01-23T05:46:01.910Z,7.62
2023-01-23T05:48:50.351Z,7.62
2023-01-23T05:51:18.396Z,7.65
2023-01-23T05:53:45.498Z,7.71
2023-01-23T05:56:12.573Z,7.78
2023-01-23T05:58:48.525Z,7.81
2023-01-23T06:01:25.431Z,7.82
2023-01-23T06:04:10.903Z,7.81
2023-01-23T06:06:52.464Z,7.80
2023-01-23T06:09:19.225Z,7.81
2023-01-23T06:11:45.965Z,7.79
2023-01-23T06:14:12.529Z,7.77
2023-01-23T06:16:39.596Z,7.77
2023-01-23T06:19:07.747Z,7.75
2023-01-23T06:21:35.772Z,7.74
2023-01-23T06:24:04.592Z,7.75
2023-01-23T06:26:32.512Z,7.76
2023-01-23T06:28:59.137Z,7.78
2023-01-23T06:31:26.655Z,7.82
2023-01-23T06:33:54.939Z,7.89
2023-01-23T06:36:26.595Z,7.94
2023-01-23T06:38:53.427Z,8.00
2023-01-23T06:41:24.499Z,8.04
2023-01-23T06:43:53.874Z,8.06
2023-01-23T06:46:23.017Z,8.07
2023-01-23T06:48:52.549Z,8.08
2023-01-23T06:51:19.321Z,8.07
2023-01-23T06:53:46.772Z,8.05
2023-01-23T06:56:13.649Z,8.04
2023-01-23T06:58:45.367Z,8.03
2023-01-23T07:01:19.838Z,8.01
2023-01-23T07:04:12.175Z,8.00
2023-01-23T07:06:39.807Z,8.02
2023-01-23T07:09:07.257Z,8.05
2023-01-23T07:11:37.087Z,8.09
2023-01-23T07:14:05.349Z,8.11
2023-01-23T07:16:35.252Z,8.13
2023-01-23T07:19:02.721Z,8.12
2023-01-23T07:21:32.548Z,8.10
2023-01-23T07:23:59.269Z,8.06
2023-01-23T07:26:26.119Z,8.00
2023-01-23T07:28:54.085Z,7.95
2023-01-23T07:31:20.809Z,7.90
2023-01-23T07:33:47.667Z,7.83
2023-01-23T07:36:14.868Z,7.80
2023-01-23T07:38:41.677Z,7.80
2023-01-23T07:41:09.029Z,7.83
2023-01-23T07:43:35.759Z,7.88
2023-01-23T07:46:02.844Z,7.92
2023-01-23T07:48:29.702Z,7.93
2023-01-23T07:50:56.725Z,7.94
2023-01-23T07:53:23.405Z,7.96
2023-01-23T07:55:50.085Z,7.96
2023-01-23T07:58:16.592Z,7.97
2023-01-23T08:00:43.386Z,7.96
2023-01-23T08:03:10.159Z,7.92
2023-01-23T08:05:36.773Z,7.92
2023-01-23T08:08:13.022Z,7.90
2023-01-23T08:10:40.955Z,7.88
2023-01-23T08:13:08.017Z,7.87
2023-01-23T08:15:34.645Z,7.89
2023-01-23T08:18:01.292Z,7.91
2023-01-23T08:20:28.167Z,7.96
2023-01-23T08:22:55.894Z,7.99
2023-01-23T08:25:22.467Z,7.96
2023-01-23T08:27:49.279Z,7.93
2023-01-23T08:30:16.471Z,7.92
2023-01-23T08:32:43.171Z,7.92
2023-01-23T08:35:10.096Z,7.97
2023-01-23T08:37:37.970Z,8.02
2023-01-23T08:40:05.522Z,8.07
2023-01-23T08:42:32.193Z,8.13
2023-01-23T08:44:58.875Z,8.16
2023-01-23T08:47:25.523Z,8.16
2023-01-23T08:49:52.289Z,8.13
2023-01-23T08:52:18.939Z,8.13
2023-01-23T08:54:45.466Z,8.14
2023-01-23T08:57:12.208Z,8.14
2023-01-23T08:59:38.729Z,8.14
2023-01-23T09:02:05.454Z,8.17
2023-01-23T09:04:32.240Z,8.18
2023-01-23T09:06:59.006Z,8.22
2023-01-23T09:09:25.568Z,8.27
2023-01-23T09:11:52.331Z,8.31
2023-01-23T09:14:19.034Z,8.30
2023-01-23T09:16:45.559Z,8.31
2023-01-23T09:19:12.915Z,8.32
2023-01-23T09:21:40.062Z,8.33
2023-01-23T09:24:06.799Z,8.30
2023-01-23T09:26:33.374Z,8.25
2023-01-23T09:29:00.101Z,8.18
2023-01-23T09:31:26.790Z,8.14
2023-01-23T09:33:53.543Z,8.09
2023-01-23T09:36:25.386Z,8.07
2023-01-23T09:39:01.146Z,8.02
2023-01-23T09:41:29.347Z,7.99
2023-01-23T09:44:03.117Z,7.95
2023-01-23T09:46:45.172Z,7.94
2023-01-23T09:49:28.960Z,7.95
2023-01-23T09:52:12.260Z,7.94
2023-01-23T09:54:43.316Z,7.88
2023-01-23T09:57:27.791Z,7.82
2023-01-23T10:00:03.952Z,7.77
2023-01-23T10:02:31.302Z,7.72
2023-01-23T10:04:59.737Z,7.69
2023-01-23T10:07:36.215Z,7.72
2023-01-23T10:10:15.257Z,7.74
2023-01-23T10:13:04.871Z,7.70
2023-01-23T10:15:53.768Z,7.65
2023-01-23T10:18:28.293Z,7.60
2023-01-23T10:21:00.779Z,7.57
2023-01-23T10:23:35.914Z,7.57
2023-01-23T10:26:04.306Z,7.56
2023-01-23T10:28:39.019Z,7.54
2023-01-23T10:31:12.461Z,7.51
2023-01-23T10:33:41.940Z,7.49
2023-01-23T10:36:23.975Z,7.49
2023-01-23T10:39:05.140Z,7.50
2023-01-23T10:41:33.836Z,7.51
2023-01-23T10:44:01.361Z,7.52
2023-01-23T10:46:33.410Z,7.52
2023-01-23T10:49:01.611Z,7.58
2023-01-23T10:51:35.195Z,7.65
2023-01-23T10:54:17.029Z,7.69
2023-01-23T10:57:07.742Z,7.69
2023-01-23T10:59:39.510Z,7.66
2023-01-23T11:02:16.021Z,7.66
2023-01-23T11:04:46.294Z,7.68
2023-01-23T11:07:24.979Z,7.68
2023-01-23T11:09:53.649Z,7.68
2023-01-23T11:12:21.972Z,7.67
2023-01-23T11:14:49.825Z,7.65
2023-01-23T11:17:20.668Z,7.66
2023-01-23T11:19:51.712Z,7.66
2023-01-23T11:22:30.407Z,7.63
2023-01-23T11:24:58.161Z,7.65
2023-01-23T11:27:28.403Z,7.66
2023-01-23T11:30:25.181Z,7.66
2023-01-23T11:33:00.016Z,7.64
2023-01-23T11:36:00.747Z,7.65
2023-01-23T11:38:34.476Z,7.69
2023-01-23T11:41:04.551Z,7.70
2023-01-23T11:43:31.820Z,7.69
2023-01-23T11:46:17.132Z,7.69
2023-01-23T11:49:08.778Z,7.70
2023-01-23T11:51:49.491Z,7.66
2023-01-23T11:54:31.249Z,7.66
2023-01-23T11:57:27.982Z,7.70
2023-01-23T12:00:33.457Z,7.75
2023-01-23T12:03:12.224Z,7.79
2023-01-23T12:05:46.158Z,7.86
2023-01-23T12:08:32.103Z,7.92
2023-01-23T12:11:18.143Z,7.95
2023-01-23T12:14:12.703Z,8.00
2023-01-23T12:17:25.038Z,8.08
2023-01-23T12:20:16.786Z,8.16
2023-01-23T12:23:20.528Z,8.21
2023-01-23T12:26:06.968Z,8.29
2023-01-23T12:28:59.697Z,8.35
2023-01-23T12:31:41.043Z,8.39
2023-01-23T12:34:23.454Z,8.42
2023-01-23T12:37:10.194Z,8.45
2023-01-23T12:40:08.582Z,8.51
2023-01-23T12:42:43.046Z,8.57
2023-01-23T12:45:20.804Z,8.63
2023-01-23T12:47:58.309Z,8.67
2023-01-23T12:50:51.226Z,8.71
2023-01-23T12:53:23.025Z,8.81
2023-01-23T12:55:58.280Z,8.88
2023-01-23T12:58:28.315Z,8.96
2023-01-23T13:01:06.984Z,9.08
2023-01-23T13:08:10.501Z,9.34
2023-01-23T13:11:33.971Z,9.40
2023-01-23T13:14:01.822Z,9.46
2023-01-23T13:16:31.987Z,9.51
2023-01-23T13:19:19.968Z,9.54
2023-01-23T13:22:19.088Z,9.60
2023-01-23T13:25:12.737Z,9.63
2023-01-23T13:27:45.587Z,9.63
2023-01-23T13:30:31.686Z,9.59
2023-01-23T13:33:07.509Z,9.56
2023-01-23T13:35:40.276Z,9.53
2023-01-23T13:38:22.313Z,9.53
2023-01-23T13:41:18.665Z,9.49
2023-01-23T13:43:55.887Z,9.43
2023-01-23T14:22:09.744Z,9.48
2023-01-23T14:24:53.287Z,9.52
2023-01-23T14:27:41.565Z,9.52
2023-01-23T14:30:18.874Z,9.53
2023-01-23T14:41:11.589Z,9.43
2023-01-23T14:43:40.655Z,9.39
2023-01-23T14:46:35.677Z,9.36
2023-01-23T14:49:05.459Z,9.31
2023-01-23T14:51:32.186Z,9.26
2023-01-23T14:53:58.782Z,9.24
2023-01-23T14:56:29.038Z,9.23
2023-01-23T14:58:58.471Z,9.23
2023-01-23T15:01:27.276Z,9.22
2023-01-23T15:04:00.764Z,9.20
2023-01-23T15:06:31.559Z,9.18
2023-01-23T15:09:17.784Z,9.14
2023-01-23T15:11:45.638Z,9.10
2023-01-23T15:14:37.525Z,9.06
2023-01-23T15:17:15.119Z,9.00
2023-01-23T15:19:41.833Z,8.96
2023-01-23T15:22:28.749Z,8.94
2023-01-23T15:24:56.737Z,8.93
2023-01-23T15:27:32.084Z,8.96
2023-01-23T15:30:32.884Z,8.99
2023-01-23T15:33:07.426Z,9.00
2023-01-23T15:35:35.818Z,8.98
2023-01-23T15:38:05.835Z,8.98
2023-01-23T15:40:36.797Z,8.98
2023-01-23T15:43:10.231Z,8.99
2023-01-23T15:45:36.970Z,9.03
2023-01-23T15:48:03.941Z,9.04
2023-01-23T15:50:30.671Z,9.03
2023-01-23T15:52:57.372Z,9.00
2023-01-23T15:55:26.637Z,8.97
2023-01-23T15:57:54.489Z,8.97
2023-01-23T16:00:21.411Z,8.93
2023-01-23T16:02:56.364Z,8.93
2023-01-23T16:09:40.493Z,8.91
2023-01-23T16:12:16.759Z,8.91
2023-01-23T16:14:43.467Z,8.93
2023-01-23T16:17:16.776Z,8.95
2023-01-23T16:19:44.257Z,8.90
2023-01-23T16:22:22.562Z,8.92
2023-01-23T16:24:49.859Z,8.96
2023-01-23T16:27:18.652Z,8.94
2023-01-23T16:29:46.552Z,8.92
2023-01-23T16:32:13.402Z,8.94
2023-01-23T16:34:40.140Z,8.96
2023-01-23T16:37:11.355Z,8.96
2023-01-23T16:39:38.262Z,8.95
2023-01-23T16:42:05.219Z,8.95
2023-01-23T16:44:32.049Z,8.95
2023-01-23T16:46:58.688Z,8.97
2023-01-23T16:53:52.701Z,8.99
2023-01-23T16:56:32.972Z,9.02
2023-01-23T16:59:00.261Z,9.04
2023-01-23T17:01:28.317Z,9.06
2023-01-23T17:04:03.104Z,9.07
2023-01-23T17:06:30.339Z,9.10
2023-01-23T17:08:56.974Z,9.10
2023-01-23T17:11:26.547Z,9.08
2023-01-23T17:13:58.671Z,9.06
2023-01-23T17:16:27.871Z,9.04
2023-01-23T17:18:57.387Z,9.02
2023-01-23T17:21:27.836Z,9.01
2023-01-23T17:23:54.501Z,9.01
2023-01-23T17:26:21.082Z,9.01
2023-01-23T17:28:48.206Z,9.00
2023-01-23T17:31:24.405Z,8.99
2023-01-23T17:33:55.784Z,8.98
2023-01-23T17:36:22.723Z,8.97
2023-01-23T17:38:52.664Z,8.96
2023-01-23T17:41:19.337Z,8.96
2023-01-23T17:43:48.433Z,8.95
2023-01-23T17:46:24.116Z,8.94
2023-01-23T17:48:50.875Z,8.93
2023-01-23T17:51:19.689Z,8.92
2023-01-23T17:53:47.223Z,8.90
2023-01-23T17:56:14.133Z,8.88
2023-01-23T17:58:41.299Z,8.88
2023-01-23T18:05:28.641Z,8.88
2023-01-23T18:07:56.010Z,8.88
2023-01-23T18:10:28.440Z,8.89
2023-01-23T18:13:08.723Z,8.92
2023-01-23T18:16:04.343Z,8.94
2023-01-23T18:18:33.356Z,8.96
2023-01-23T18:21:02.280Z,8.99
2023-01-23T18:23:32.209Z,9.02
2023-01-23T18:26:04.866Z,9.05
2023-01-23T18:28:35.886Z,9.08
2023-01-23T18:36:01.172Z,9.07
2023-01-23T18:42:32.306Z,9.09
2023-01-23T18:45:03.479Z,9.13
2023-01-23T18:47:30.391Z,9.17
2023-01-23T18:49:57.567Z,9.22
2023-01-23T18:52:47.877Z,9.23
2023-01-23T18:55:49.976Z,9.26
2023-01-23T18:58:29.882Z,9.28
2023-01-23T19:01:16.232Z,9.29
2023-01-23T19:03:45.008Z,9.30
2023-01-23T19:06:24.038Z,9.29
2023-01-23T19:08:53.652Z,9.30
2023-01-23T19:11:32.790Z,9.28
2023-01-23T19:14:21.534Z,9.22
2023-01-23T19:16:58.833Z,9.17
2023-01-23T19:19:40.489Z,9.15
2023-01-23T19:22:12.477Z,9.09
2023-01-23T19:24:39.444Z,9.06
2023-01-23T19:27:20.332Z,9.03
2023-01-23T19:29:47.156Z,9.00
2023-01-23T19:32:14.148Z,8.97
2023-01-23T19:34:43.080Z,8.96
2023-01-23T19:37:09.767Z,8.97
2023-01-23T19:39:36.300Z,8.98
2023-01-23T19:42:03.056Z,8.99
2023-01-23T19:44:30.760Z,9.00
2023-01-23T19:46:57.604Z,9.05
2023-01-23T19:49:25.367Z,9.06
2023-01-23T19:51:52.145Z,9.08
2023-01-23T19:54:19.244Z,9.11
2023-01-23T19:56:45.988Z,9.10
2023-01-23T19:59:12.833Z,9.10
2023-01-23T20:06:08.084Z,9.13
2023-01-23T20:08:34.901Z,9.17
2023-01-23T20:11:01.813Z,9.20
2023-01-23T20:13:29.162Z,9.25
2023-01-23T20:15:55.975Z,9.27
2023-01-23T20:18:22.660Z,9.30
2023-01-23T20:20:49.651Z,9.33
2023-01-23T20:23:16.468Z,9.32
2023-01-23T20:25:43.225Z,9.29
2023-01-23T20:28:11.300Z,9.24
2023-01-23T20:30:39.362Z,9.20
2023-01-23T20:33:07.515Z,9.17
2023-01-23T20:35:35.559Z,9.12
2023-01-23T20:38:02.569Z,9.10
2023-01-23T20:40:29.438Z,9.06
2023-01-23T20:42:57.016Z,9.05
2023-01-23T20:45:25.711Z,9.03
2023-01-23T20:47:52.572Z,8.97
2023-01-23T20:50:19.327Z,8.92
2023-01-23T20:53:04.568Z,8.87
2023-01-23T20:55:32.099Z,8.84
2023-01-23T20:58:17.734Z,8.85
2023-01-23T21:00:44.666Z,8.84
2023-01-23T21:03:11.423Z,8.80
2023-01-23T21:05:38.147Z,8.78
2023-01-23T21:08:05.007Z,8.79
2023-01-23T21:10:31.700Z,8.79
2023-01-23T21:12:58.299Z,8.78
2023-01-23T21:15:25.042Z,8.78
2023-01-23T21:17:51.678Z,8.79
2023-01-23T21:20:18.397Z,8.79
2023-01-23T21:22:45.123Z,8.80
2023-01-23T21:25:12.402Z,8.81
2023-01-23T21:27:39.008Z,8.84
2023-01-23T21:30:06.292Z,8.88
2023-01-23T21:32:33.022Z,8.92
2023-01-23T21:34:59.567Z,8.96
2023-01-23T21:37:26.162Z,8.95
2023-01-23T21:39:52.884Z,8.94
2023-01-23T21:42:19.499Z,8.95
2023-01-23T21:44:46.119Z,8.94
2023-01-23T21:47:12.725Z,8.91
2023-01-23T21:49:39.213Z,8.88
2023-01-23T21:52:05.940Z,8.85
2023-01-23T21:54:32.571Z,8.82
2023-01-23T21:56:59.421Z,8.80
2023-01-23T22:03:27.787Z,8.74
2023-01-23T22:05:58.262Z,8.72
2023-01-23T22:08:24.828Z,8.70
2023-01-23T22:10:51.471Z,8.67
2023-01-23T22:13:18.091Z,8.62
2023-01-23T22:15:44.716Z,8.58
2023-01-23T22:18:11.308Z,8.57
2023-01-23T22:20:38.511Z,8.55
2023-01-23T22:23:05.132Z,8.51
2023-01-23T22:25:31.756Z,8.47
2023-01-23T22:27:58.302Z,8.43
2023-01-23T22:30:24.996Z,8.40
2023-01-23T22:32:51.489Z,8.40
2023-01-23T22:35:18.107Z,8.39
2023-01-23T22:37:44.727Z,8.37
2023-01-23T22:40:11.610Z,8.34
2023-01-23T22:42:38.336Z,8.33
2023-01-23T22:45:05.486Z,8.35
2023-01-23T22:47:32.091Z,8.40
2023-01-23T22:49:58.663Z,8.45
2023-01-23T22:52:25.387Z,8.47
2023-01-23T22:54:51.939Z,8.47
2023-01-23T22:57:18.545Z,8.47
2023-01-23T22:59:45.135Z,8.45
2023-01-23T23:02:11.754Z,8.43
2023-01-23T23:04:38.390Z,8.45
2023-01-23T23:07:05.019Z,8.48
2023-01-23T23:09:31.568Z,8.51
2023-01-23T23:11:58.231Z,8.52
2023-01-23T23:14:24.915Z,8.52
2023-01-23T23:16:51.460Z,8.52
2023-01-23T23:19:18.031Z,8.50
2023-01-23T23:21:44.618Z,8.49
2023-01-23T23:24:13.604Z,8.50
2023-01-23T23:26:40.647Z,8.53
2023-01-23T23:29:07.326Z,8.56
2023-01-23T23:31:34.058Z,8.59
2023-01-23T23:34:01.049Z,8.58
2023-01-23T23:36:28.006Z,8.56
2023-01-23T23:38:54.666Z,8.55
2023-01-23T23:41:21.315Z,8.53
2023-01-23T23:43:47.937Z,8.51
2023-01-23T23:46:16.069Z,8.49
2023-01-23T23:48:43.876Z,8.46
2023-01-23T23:51:13.984Z,8.43
2023-01-23T23:53:41.249Z,8.41
2023-01-23T23:56:08.871Z,8.39
2023-01-23T23:58:36.828Z,8.37
